UTDL

Khudzhand Airport

Khudzhand, Tajikistan
METAR UTDL 201900Z 23002MPS 9999 SCT070CB OVC086 20/11 Q1017 R26/CLRD70 NOSIG RMK QFE725/0967
Observed Flight Rules
Sep-20 @ 19:00 UTC (19 minutes ago) Visual Flight Rules
Wind Visibility Clouds
230° at 4 knots 10,000+ meters
Temperatures Readings
Current 20°C / 68°F
Dewpoint 11°C / 52°F
Humidity 56%
Altimeter 30.03" Hg
Pressure 1017 hPa
Elevation 442
METAR UTDL 201900Z 23002MPS 9999 SCT070CB OVC086 20/11 Q1017 R26/CLRD70 NOSIG RMK QFE725/0967
Observed Flight Rules
Sep-20 @ 19:00 UTC
(19 minutes ago)
VFR
Wind Visibility
230° at 4 knots 10,000+ meters
Clouds
Temperature Dewpoint
20°C / 68°F 11°C / 52°F
Humidity Altimeter Pressure
56% 30.03" Hg 1017 hPa